sensor_id;sensor_type;location;lat;lon;timestamp;pressure;altitude;pressure_sealevel;temperature;humidity
22311;BME280;11323;49.610;11.016;2023-04-05T00:02:40;98783.72;;;13.88;68.18
22311;BME280;11323;49.610;11.016;2023-04-05T00:07:40;98781.78;;;13.90;68.27
22311;BME280;11323;49.610;11.016;2023-04-05T00:12:40;98768.00;;;13.88;68.17
22311;BME280;11323;49.610;11.016;2023-04-05T00:17:41;98769.94;;;13.86;68.57
22311;BME280;11323;49.610;11.016;2023-04-05T00:22:42;98769.31;;;13.84;68.48
22311;BME280;11323;49.610;11.016;2023-04-05T00:27:43;98756.50;;;13.81;68.39
22311;BME280;11323;49.610;11.016;2023-04-05T00:32:46;98750.56;;;13.79;67.90
22311;BME280;11323;49.610;11.016;2023-04-05T00:37:47;98752.38;;;13.78;68.17
22311;BME280;11323;49.610;11.016;2023-04-05T00:42:47;98750.72;;;13.77;68.30
22311;BME280;11323;49.610;11.016;2023-04-05T00:47:48;98753.47;;;13.75;68.13
22311;BME280;11323;49.610;11.016;2023-04-05T00:52:49;98753.81;;;13.72;68.31
22311;BME280;11323;49.610;11.016;2023-04-05T00:57:50;98748.56;;;13.72;68.38
22311;BME280;11323;49.610;11.016;2023-04-05T01:03:01;98737.41;;;13.70;68.28
22311;BME280;11323;49.610;11.016;2023-04-05T01:08:54;98728.19;;;13.66;67.92
22311;BME280;11323;49.610;11.016;2023-04-05T01:13:58;98724.75;;;13.66;68.59
22311;BME280;11323;49.610;11.016;2023-04-05T01:18:59;98719.66;;;13.64;68.47
22311;BME280;11323;49.610;11.016;2023-04-05T01:24:50;98709.50;;;13.61;67.86
22311;BME280;11323;49.610;11.016;2023-04-05T01:30:03;98702.91;;;13.57;68.22
22311;BME280;11323;49.610;11.016;2023-04-05T01:35:17;98693.41;;;13.56;68.31
22311;BME280;11323;49.610;11.016;2023-04-05T01:40:21;98692.44;;;13.57;68.34
22311;BME280;11323;49.610;11.016;2023-04-05T01:45:22;98686.91;;;13.60;67.86
22311;BME280;11323;49.610;11.016;2023-04-05T01:50:22;98684.84;;;13.54;68.58
22311;BME280;11323;49.610;11.016;2023-04-05T01:55:22;98681.19;;;13.47;68.11
22311;BME280;11323;49.610;11.016;2023-04-05T02:00:23;98695.19;;;13.55;68.20
22311;BME280;11323;49.610;11.016;2023-04-05T02:05:25;98693.69;;;13.53;68.21
22311;BME280;11323;49.610;11.016;2023-04-05T02:10:25;98698.28;;;13.51;68.68
22311;BME280;11323;49.610;11.016;2023-04-05T02:15:28;98695.78;;;13.49;68.34
22311;BME280;11323;49.610;11.016;2023-04-05T02:20:31;98699.38;;;13.48;68.12
22311;BME280;11323;49.610;11.016;2023-04-05T02:25:32;98698.56;;;13.48;67.70
22311;BME280;11323;49.610;11.016;2023-04-05T02:30:32;98698.56;;;13.48;68.36
22311;BME280;11323;49.610;11.016;2023-04-05T02:35:32;98689.22;;;13.45;67.85
22311;BME280;11323;49.610;11.016;2023-04-05T02:40:33;98695.56;;;13.42;68.44
22311;BME280;11323;49.610;11.016;2023-04-05T02:45:33;98688.84;;;13.40;68.22
22311;BME280;11323;49.610;11.016;2023-04-05T02:50:34;98681.41;;;13.35;67.94
22311;BME280;11323;49.610;11.016;2023-04-05T02:55:35;98680.97;;;13.40;68.63
22311;BME280;11323;49.610;11.016;2023-04-05T03:00:36;98687.31;;;13.37;68.06
22311;BME280;11323;49.610;11.016;2023-04-05T03:05:38;98682.06;;;13.37;67.86
22311;BME280;11323;49.610;11.016;2023-04-05T03:10:39;98670.53;;;13.30;68.31
22311;BME280;11323;49.610;11.016;2023-04-05T03:15:47;98673.81;;;13.32;67.93
22311;BME280;11323;49.610;11.016;2023-04-05T03:20:52;98668.75;;;13.31;68.27
22311;BME280;11323;49.610;11.016;2023-04-05T03:31:00;98661.34;;;13.26;68.29
22311;BME280;11323;49.610;11.016;2023-04-05T03:36:00;98660.50;;;13.25;68.24
22311;BME280;11323;49.610;11.016;2023-04-05T03:41:05;98678.69;;;13.27;68.46
22311;BME280;11323;49.610;11.016;2023-04-05T03:46:06;98667.56;;;13.25;68.52
22311;BME280;11323;49.610;11.016;2023-04-05T03:51:06;98667.38;;;13.26;67.58
22311;BME280;11323;49.610;11.016;2023-04-05T03:56:07;98670.63;;;13.20;68.35
22311;BME280;11323;49.610;11.016;2023-04-05T04:01:17;98663.56;;;13.21;68.21
22311;BME280;11323;49.610;11.016;2023-04-05T04:06:17;98673.06;;;13.22;68.31
22311;BME280;11323;49.610;11.016;2023-04-05T04:11:18;98663.22;;;13.16;68.46
22311;BME280;11323;49.610;11.016;2023-04-05T04:16:18;98665.97;;;13.14;67.94
22311;BME280;11323;49.610;11.016;2023-04-05T04:21:42;98664.19;;;13.15;68.10
22311;BME280;11323;49.610;11.016;2023-04-05T04:26:52;98657.28;;;13.13;68.66
22311;BME280;11323;49.610;11.016;2023-04-05T04:32:06;98667.59;;;13.15;68.25
22311;BME280;11323;49.610;11.016;2023-04-05T04:37:20;98668.72;;;13.12;68.02
22311;BME280;11323;49.610;11.016;2023-04-05T04:42:50;98664.06;;;13.06;68.24
22311;BME280;11323;49.610;11.016;2023-04-05T04:48:16;98662.28;;;13.07;68.25
22311;BME280;11323;49.610;11.016;2023-04-05T04:53:27;98652.56;;;12.99;68.22
22311;BME280;11323;49.610;11.016;2023-04-05T04:58:28;98674.53;;;13.06;67.80
22311;BME280;11323;49.610;11.016;2023-04-05T05:03:36;98669.63;;;13.03;68.33
22311;BME280;11323;49.610;11.016;2023-04-05T05:08:40;98688.31;;;13.08;68.74
22311;BME280;11323;49.610;11.016;2023-04-05T05:13:40;98685.16;;;13.05;68.42
22311;BME280;11323;49.610;11.016;2023-04-05T05:18:43;98686.66;;;13.07;68.59
22311;BME280;11323;49.610;11.016;2023-04-05T05:23:47;98682.97;;;13.00;68.32
22311;BME280;11323;49.610;11.016;2023-04-05T05:28:48;98684.47;;;13.03;68.35
22311;BME280;11323;49.610;11.016;2023-04-05T05:33:49;98686.28;;;13.02;68.24
22311;BME280;11323;49.610;11.016;2023-04-05T05:38:50;98694.13;;;13.02;68.00
22311;BME280;11323;49.610;11.016;2023-04-05T05:43:51;98700.69;;;13.06;68.34
22311;BME280;11323;49.610;11.016;2023-04-05T05:48:52;98699.38;;;13.02;68.06
22311;BME280;11323;49.610;11.016;2023-04-05T05:53:53;98700.34;;;13.01;67.69
22311;BME280;11323;49.610;11.016;2023-04-05T05:58:54;98708.47;;;12.98;68.03
22311;BME280;11323;49.610;11.016;2023-04-05T06:03:55;98703.22;;;12.98;68.28
22311;BME280;11323;49.610;11.016;2023-04-05T06:08:56;98693.88;;;12.95;68.16
22311;BME280;11323;49.610;11.016;2023-04-05T06:13:56;98698.97;;;12.97;68.54
22311;BME280;11323;49.610;11.016;2023-04-05T06:18:57;98703.53;;;12.95;68.67
22311;BME280;11323;49.610;11.016;2023-04-05T06:23:57;98704.50;;;12.94;68.32
22311;BME280;11323;49.610;11.016;2023-04-05T06:28:57;98703.69;;;12.93;68.22
22311;BME280;11323;49.610;11.016;2023-04-05T06:33:58;98706.28;;;12.93;68.27
22311;BME280;11323;49.610;11.016;2023-04-05T06:38:58;98697.91;;;12.90;68.85
22311;BME280;11323;49.610;11.016;2023-04-05T06:43:59;98700.25;;;12.93;68.49
22311;BME280;11323;49.610;11.016;2023-04-05T06:48:59;98706.25;;;13.03;68.54
22311;BME280;11323;49.610;11.016;2023-04-05T06:54:01;98698.50;;;13.11;68.09
22311;BME280;11323;49.610;11.016;2023-04-05T06:59:01;98693.25;;;13.11;68.46
22311;BME280;11323;49.610;11.016;2023-04-05T07:04:02;98697.31;;;13.24;68.05
22311;BME280;11323;49.610;11.016;2023-04-05T07:09:02;98700.28;;;13.29;68.18
22311;BME280;11323;49.610;11.016;2023-04-05T07:14:03;98700.84;;;13.33;67.98
22311;BME280;11323;49.610;11.016;2023-04-05T07:19:03;98692.53;;;13.37;68.00
22311;BME280;11323;49.610;11.016;2023-04-05T07:24:05;98693.91;;;13.41;67.55
22311;BME280;11323;49.610;11.016;2023-04-05T07:29:06;98696.91;;;13.47;66.75
22311;BME280;11323;49.610;11.016;2023-04-05T07:34:07;98686.44;;;13.47;66.79
22311;BME280;11323;49.610;11.016;2023-04-05T07:39:08;98686.16;;;13.50;66.84
22311;BME280;11323;49.610;11.016;2023-04-05T07:44:09;98682.00;;;13.47;66.66
22311;BME280;11323;49.610;11.016;2023-04-05T07:49:10;98685.59;;;13.46;66.63
22311;BME280;11323;49.610;11.016;2023-04-05T07:54:10;98690.03;;;13.46;66.73
22311;BME280;11323;49.610;11.016;2023-04-05T07:59:12;98699.38;;;13.48;66.80
22311;BME280;11323;49.610;11.016;2023-04-05T08:04:12;98689.06;;;13.47;66.76
22311;BME280;11323;49.610;11.016;2023-04-05T08:09:13;98693.31;;;13.48;67.18
22311;BME280;11323;49.610;11.016;2023-04-05T08:14:13;98675.97;;;13.47;66.64
22311;BME280;11323;49.610;11.016;2023-04-05T08:19:14;98682.09;;;13.55;66.47
22311;BME280;11323;49.610;11.016;2023-04-05T08:24:14;98679.72;;;13.62;66.31
22311;BME280;11323;49.610;11.016;2023-04-05T08:29:15;98677.75;;;13.64;66.03
22311;BME280;11323;49.610;11.016;2023-04-05T08:34:15;98679.41;;;13.65;66.03
22311;BME280;11323;49.610;11.016;2023-04-05T08:39:16;98677.75;;;13.64;66.30
22311;BME280;11323;49.610;11.016;2023-04-05T08:44:17;98678.44;;;13.66;66.22
22311;BME280;11323;49.610;11.016;2023-04-05T08:49:21;98686.16;;;13.68;66.43
22311;BME280;11323;49.610;11.016;2023-04-05T08:54:22;98679.56;;;13.64;66.04
22311;BME280;11323;49.610;11.016;2023-04-05T08:59:23;98673.63;;;13.62;66.30
22311;BME280;11323;49.610;11.016;2023-04-05T09:04:25;98672.84;;;13.61;66.03
22311;BME280;11323;49.610;11.016;2023-04-05T09:09:31;98670.22;;;13.61;66.54
22311;BME280;11323;49.610;11.016;2023-04-05T09:14:37;98674.47;;;13.62;66.37
22311;BME280;11323;49.610;11.016;2023-04-05T09:19:38;98666.75;;;13.61;66.16
22311;BME280;11323;49.610;11.016;2023-04-05T09:24:43;98674.47;;;13.62;65.91
22311;BME280;11323;49.610;11.016;2023-04-05T09:29:48;98671.69;;;13.64;65.92
22311;BME280;11323;49.610;11.016;2023-04-05T09:34:51;98670.56;;;13.66;65.57
22311;BME280;11323;49.610;11.016;2023-04-05T09:40:03;98665.63;;;13.63;66.12
22311;BME280;11323;49.610;11.016;2023-04-05T09:45:04;98668.91;;;13.65;66.21
22311;BME280;11323;49.610;11.016;2023-04-05T09:50:35;98652.22;;;13.66;65.69
22311;BME280;11323;49.610;11.016;2023-04-05T09:55:39;98661.56;;;13.69;65.55
22311;BME280;11323;49.610;11.016;2023-04-05T10:00:48;98663.38;;;13.68;66.17
22311;BME280;11323;49.610;11.016;2023-04-05T10:05:57;98656.50;;;13.67;65.95
22311;BME280;11323;49.610;11.016;2023-04-05T10:11:00;98655.16;;;13.63;65.91
22311;BME280;11323;49.610;11.016;2023-04-05T10:16:05;98659.56;;;13.63;65.76
22311;BME280;11323;49.610;11.016;2023-04-05T10:21:10;98649.56;;;13.58;66.22
22311;BME280;11323;49.610;11.016;2023-04-05T10:26:29;98654.78;;;13.58;65.85
22311;BME280;11323;49.610;11.016;2023-04-05T10:31:49;98653.53;;;13.62;66.21
22311;BME280;11323;49.610;11.016;2023-04-05T10:37:00;98651.88;;;13.61;66.25
22311;BME280;11323;49.610;11.016;2023-04-05T10:42:09;98643.63;;;13.56;66.22
22311;BME280;11323;49.610;11.016;2023-04-05T10:47:13;98644.47;;;13.56;65.99
22311;BME280;11323;49.610;11.016;2023-04-05T10:52:16;98638.09;;;13.59;66.19
22311;BME280;11323;49.610;11.016;2023-04-05T10:57:19;98645.34;;;13.65;65.85
22311;BME280;11323;49.610;11.016;2023-04-05T11:02:20;98635.84;;;13.64;65.70
22311;BME280;11323;49.610;11.016;2023-04-05T11:07:21;98639.13;;;13.66;66.29
22311;BME280;11323;49.610;11.016;2023-04-05T11:18:09;98623.72;;;13.63;65.77
22311;BME280;11323;49.610;11.016;2023-04-05T11:23:15;98620.13;;;13.64;66.15
22311;BME280;11323;49.610;11.016;2023-04-05T11:33:53;98608.00;;;13.63;65.80
22311;BME280;11323;49.610;11.016;2023-04-05T11:44:22;98602.75;;;13.63;66.00
22311;BME280;11323;49.610;11.016;2023-04-05T11:49:24;98593.28;;;13.62;65.98
22311;BME280;11323;49.610;11.016;2023-04-05T11:54:31;98580.59;;;13.75;65.44
22311;BME280;11323;49.610;11.016;2023-04-05T11:59:35;98582.94;;;13.87;66.14
22311;BME280;11323;49.610;11.016;2023-04-05T12:04:36;98576.44;;;13.91;66.76
22311;BME280;11323;49.610;11.016;2023-04-05T12:10:00;98586.97;;;13.99;67.62
22311;BME280;11323;49.610;11.016;2023-04-05T12:15:02;98582.75;;;14.07;68.15
22311;BME280;11323;49.610;11.016;2023-04-05T12:20:04;98571.63;;;14.13;67.84
22311;BME280;11323;49.610;11.016;2023-04-05T12:25:05;98564.75;;;14.12;68.30
22311;BME280;11323;49.610;11.016;2023-04-05T12:30:17;98566.75;;;14.18;68.37
22311;BME280;11323;49.610;11.016;2023-04-05T12:35:37;98554.47;;;14.18;68.93
22311;BME280;11323;49.610;11.016;2023-04-05T12:40:39;98549.69;;;14.14;68.68
22311;BME280;11323;49.610;11.016;2023-04-05T12:45:40;98560.22;;;14.22;69.07
22311;BME280;11323;49.610;11.016;2023-04-05T12:50:42;98558.75;;;14.28;68.66
22311;BME280;11323;49.610;11.016;2023-04-05T12:55:47;98536.97;;;14.27;68.80
22311;BME280;11323;49.610;11.016;2023-04-05T13:00:48;98535.34;;;14.26;68.74
22311;BME280;11323;49.610;11.016;2023-04-05T13:05:48;98535.19;;;14.36;69.21
22311;BME280;11323;49.610;11.016;2023-04-05T13:10:49;98531.78;;;14.44;69.13
22311;BME280;11323;49.610;11.016;2023-04-05T13:15:49;98523.78;;;14.62;68.54
22311;BME280;11323;49.610;11.016;2023-04-05T13:20:49;98511.75;;;13.92;52.49
22311;BME280;11323;49.610;11.016;2023-04-05T13:25:50;98509.66;;;13.95;63.46
22311;BME280;11323;49.610;11.016;2023-04-05T13:30:51;98502.03;;;14.18;63.34
22311;BME280;11323;49.610;11.016;2023-04-05T13:35:51;98502.41;;;14.24;64.25
22311;BME280;11323;49.610;11.016;2023-04-05T13:40:51;98493.38;;;14.26;64.96
22311;BME280;11323;49.610;11.016;2023-04-05T13:45:52;98484.38;;;14.29;65.11
22311;BME280;11323;49.610;11.016;2023-04-05T13:50:52;98476.69;;;14.27;65.37
22311;BME280;11323;49.610;11.016;2023-04-05T13:55:53;98486.19;;;14.28;65.68
22311;BME280;11323;49.610;11.016;2023-04-05T14:00:53;98469.63;;;14.28;65.83
22311;BME280;11323;49.610;11.016;2023-04-05T14:05:53;98478.31;;;14.28;66.04
22311;BME280;11323;49.610;11.016;2023-04-05T14:10:54;98468.81;;;14.27;66.04
22311;BME280;11323;49.610;11.016;2023-04-05T14:15:54;98466.34;;;14.26;65.98
22311;BME280;11323;49.610;11.016;2023-04-05T14:20:55;98462.91;;;14.25;66.02
22311;BME280;11323;49.610;11.016;2023-04-05T14:25:58;98460.59;;;14.22;66.09
22311;BME280;11323;49.610;11.016;2023-04-05T14:30:58;98465.53;;;14.25;66.27
22311;BME280;11323;49.610;11.016;2023-04-05T14:35:59;98460.28;;;14.25;66.01
22311;BME280;11323;49.610;11.016;2023-04-05T14:40:59;98451.09;;;14.21;66.09
22311;BME280;11323;49.610;11.016;2023-04-05T14:45:59;98453.72;;;14.21;66.26
22311;BME280;11323;49.610;11.016;2023-04-05T14:51:00;98440.94;;;14.18;65.91
22311;BME280;11323;49.610;11.016;2023-04-05T14:56:00;98440.28;;;14.16;66.10
22311;BME280;11323;49.610;11.016;2023-04-05T15:01:01;98439.94;;;14.19;66.07
22311;BME280;11323;49.610;11.016;2023-04-05T15:06:02;98436.69;;;14.17;66.17
22311;BME280;11323;49.610;11.016;2023-04-05T15:11:03;98431.44;;;14.17;66.17
22311;BME280;11323;49.610;11.016;2023-04-05T15:16:04;98422.91;;;14.15;66.05
22311;BME280;11323;49.610;11.016;2023-04-05T15:21:05;98427.47;;;14.13;65.84
22311;BME280;11323;49.610;11.016;2023-04-05T15:26:06;98426.50;;;14.14;66.28
22311;BME280;11323;49.610;11.016;2023-04-05T15:31:06;98413.22;;;14.07;66.13
22311;BME280;11323;49.610;11.016;2023-04-05T15:36:07;98425.16;;;14.10;66.04
22311;BME280;11323;49.610;11.016;2023-04-05T15:41:07;98424.19;;;14.11;66.09
22311;BME280;11323;49.610;11.016;2023-04-05T15:46:08;98427.13;;;14.08;66.33
22311;BME280;11323;49.610;11.016;2023-04-05T15:51:08;98430.41;;;14.10;66.50
22311;BME280;11323;49.610;11.016;2023-04-05T15:56:09;98423.03;;;14.05;66.21
22311;BME280;11323;49.610;11.016;2023-04-05T16:01:09;98421.09;;;14.07;66.24
22311;BME280;11323;49.610;11.016;2023-04-05T16:06:10;98422.22;;;14.04;66.31
22311;BME280;11323;49.610;11.016;2023-04-05T16:11:10;98415.03;;;14.07;66.15
22311;BME280;11323;49.610;11.016;2023-04-05T16:16:11;98416.66;;;14.08;66.38
22311;BME280;11323;49.610;11.016;2023-04-05T16:21:14;98425.66;;;14.05;66.20
22311;BME280;11323;49.610;11.016;2023-04-05T16:26:16;98421.56;;;14.02;66.69
22311;BME280;11323;49.610;11.016;2023-04-05T16:31:16;98423.19;;;14.03;66.57
22311;BME280;11323;49.610;11.016;2023-04-05T16:36:16;98420.72;;;14.02;66.70
22311;BME280;11323;49.610;11.016;2023-04-05T16:41:17;98421.72;;;14.01;66.33
22311;BME280;11323;49.610;11.016;2023-04-05T16:46:17;98420.91;;;14.00;66.72
22311;BME280;11323;49.610;11.016;2023-04-05T16:51:18;98423.81;;;13.97;66.38
22311;BME280;11323;49.610;11.016;2023-04-05T16:56:18;98427.28;;;13.98;66.65
22311;BME280;11323;49.610;11.016;2023-04-05T17:01:19;98422.53;;;14.01;66.75
22311;BME280;11323;49.610;11.016;2023-04-05T17:06:19;98430.09;;;14.04;66.74
22311;BME280;11323;49.610;11.016;2023-04-05T17:11:20;98430.75;;;14.07;67.07
22311;BME280;11323;49.610;11.016;2023-04-05T17:16:20;98435.66;;;14.10;67.16
22311;BME280;11323;49.610;11.016;2023-04-05T17:21:21;98430.41;;;14.10;67.42
22311;BME280;11323;49.610;11.016;2023-04-05T17:26:22;98423.03;;;14.05;67.50
22311;BME280;11323;49.610;11.016;2023-04-05T17:31:23;98436.81;;;14.15;67.68
22311;BME280;11323;49.610;11.016;2023-04-05T17:36:24;98429.78;;;14.16;67.93
22311;BME280;11323;49.610;11.016;2023-04-05T17:41:25;98435.03;;;14.16;67.54
22311;BME280;11323;49.610;11.016;2023-04-05T17:46:25;98439.31;;;14.17;67.56
22311;BME280;11323;49.610;11.016;2023-04-05T17:51:26;98445.19;;;14.19;67.47
22311;BME280;11323;49.610;11.016;2023-04-05T17:56:27;98441.91;;;14.17;67.28
22311;BME280;11323;49.610;11.016;2023-04-05T18:01:27;98434.84;;;14.09;67.27
22311;BME280;11323;49.610;11.016;2023-04-05T18:06:28;98447.13;;;14.09;67.59
22311;BME280;11323;49.610;11.016;2023-04-05T18:11:28;98449.41;;;14.03;67.57
22311;BME280;11323;49.610;11.016;2023-04-05T18:16:29;98447.59;;;14.04;67.23
22311;BME280;11323;49.610;11.016;2023-04-05T18:21:31;98453.19;;;14.01;67.46
22311;BME280;11323;49.610;11.016;2023-04-05T18:26:32;98460.38;;;13.99;67.33
22311;BME280;11323;49.610;11.016;2023-04-05T18:31:33;98447.75;;;13.94;67.15
22311;BME280;11323;49.610;11.016;2023-04-05T18:36:33;98464.28;;;13.95;67.43
22311;BME280;11323;49.610;11.016;2023-04-05T18:41:38;98466.56;;;13.89;67.48
22311;BME280;11323;49.610;11.016;2023-04-05T18:46:39;98469.13;;;13.81;67.60
22311;BME280;11323;49.610;11.016;2023-04-05T18:51:39;98471.91;;;13.80;67.50
22311;BME280;11323;49.610;11.016;2023-04-05T18:56:39;98474.25;;;13.91;67.60
22311;BME280;11323;49.610;11.016;2023-04-05T19:01:40;98479.19;;;13.94;67.41
22311;BME280;11323;49.610;11.016;2023-04-05T19:06:40;98478.84;;;13.97;67.32
22311;BME280;11323;49.610;11.016;2023-04-05T19:11:41;98479.38;;;14.01;67.29
22311;BME280;11323;49.610;11.016;2023-04-05T19:16:41;98479.69;;;13.98;67.76
22311;BME280;11323;49.610;11.016;2023-04-05T19:21:41;98488.22;;;14.00;67.93
22311;BME280;11323;49.610;11.016;2023-04-05T19:26:42;98479.22;;;14.02;67.51
22311;BME280;11323;49.610;11.016;2023-04-05T19:31:43;98483.47;;;14.03;68.11
22311;BME280;11323;49.610;11.016;2023-04-05T19:36:43;98481.53;;;14.05;68.19
22311;BME280;11323;49.610;11.016;2023-04-05T19:41:44;98486.97;;;14.12;68.12
22311;BME280;11323;49.610;11.016;2023-04-05T19:46:45;98484.00;;;14.15;67.86
22311;BME280;11323;49.610;11.016;2023-04-05T19:51:45;98480.25;;;14.18;67.98
22311;BME280;11323;49.610;11.016;2023-04-05T19:56:46;98475.66;;;14.20;67.65
22311;BME280;11323;49.610;11.016;2023-04-05T20:01:46;98477.66;;;14.26;67.78
22311;BME280;11323;49.610;11.016;2023-04-05T20:06:48;98485.84;;;14.31;68.11
22311;BME280;11323;49.610;11.016;2023-04-05T20:12:00;98478.97;;;14.30;68.00
22311;BME280;11323;49.610;11.016;2023-04-05T20:17:00;98468.81;;;14.27;67.90
22311;BME280;11323;49.610;11.016;2023-04-05T20:22:05;98477.84;;;14.33;67.63
22311;BME280;11323;49.610;11.016;2023-04-05T20:27:06;98475.22;;;14.41;67.76
22311;BME280;11323;49.610;11.016;2023-04-05T20:32:06;98477.69;;;14.43;67.58
22311;BME280;11323;49.610;11.016;2023-04-05T20:37:07;98475.72;;;14.45;67.81
22311;BME280;11323;49.610;11.016;2023-04-05T20:42:10;98471.94;;;14.47;67.33
22311;BME280;11323;49.610;11.016;2023-04-05T20:47:10;98468.84;;;14.44;67.55
22311;BME280;11323;49.610;11.016;2023-04-05T20:52:11;98469.34;;;14.47;67.65
22311;BME280;11323;49.610;11.016;2023-04-05T20:57:11;98471.81;;;14.49;67.78
22311;BME280;11323;49.610;11.016;2023-04-05T21:02:11;98472.47;;;14.51;67.87
22311;BME280;11323;49.610;11.016;2023-04-05T21:07:12;98468.22;;;14.50;67.53
22311;BME280;11323;49.610;11.016;2023-04-05T21:12:12;98473.09;;;14.53;67.63
22311;BME280;11323;49.610;11.016;2023-04-05T21:17:13;98467.53;;;14.48;67.61
22311;BME280;11323;49.610;11.016;2023-04-05T21:22:13;98466.56;;;14.49;67.78
22311;BME280;11323;49.610;11.016;2023-04-05T21:27:13;98469.84;;;14.51;67.52
22311;BME280;11323;49.610;11.016;2023-04-05T21:32:14;98478.03;;;14.56;67.42
22311;BME280;11323;49.610;11.016;2023-04-05T21:37:14;98481.97;;;14.52;67.17
22311;BME280;11323;49.610;11.016;2023-04-05T21:42:15;98477.06;;;14.49;67.13
22311;BME280;11323;49.610;11.016;2023-04-05T21:47:15;98475.72;;;14.45;67.13
22311;BME280;11323;49.610;11.016;2023-04-05T21:52:17;98476.38;;;14.39;67.01
22311;BME280;11323;49.610;11.016;2023-04-05T21:57:17;98475.53;;;14.38;67.10
22311;BME280;11323;49.610;11.016;2023-04-05T22:02:18;98469.00;;;14.34;67.08
22311;BME280;11323;49.610;11.016;2023-04-05T22:07:18;98474.06;;;14.27;67.40
22311;BME280;11323;49.610;11.016;2023-04-05T22:12:18;98471.38;;;14.19;67.05
22311;BME280;11323;49.610;11.016;2023-04-05T22:17:21;98474.69;;;14.21;67.22
22311;BME280;11323;49.610;11.016;2023-04-05T22:22:21;98481.88;;;14.19;67.31
22311;BME280;11323;49.610;11.016;2023-04-05T22:27:22;98481.72;;;14.12;67.04
22311;BME280;11323;49.610;11.016;2023-04-05T22:32:22;98482.16;;;14.08;67.08
22311;BME280;11323;49.610;11.016;2023-04-05T22:37:23;98483.16;;;14.07;67.42
22311;BME280;11323;49.610;11.016;2023-04-05T22:42:23;98486.22;;;14.02;67.42
22311;BME280;11323;49.610;11.016;2023-04-05T22:47:23;98467.06;;;13.93;67.30
22311;BME280;11323;49.610;11.016;2023-04-05T22:52:24;98478.84;;;13.97;67.36
22311;BME280;11323;49.610;11.016;2023-04-05T22:57:24;98474.75;;;13.95;67.47
22311;BME280;11323;49.610;11.016;2023-04-05T23:02:25;98477.84;;;13.90;67.43
22311;BME280;11323;49.610;11.016;2023-04-05T23:07:26;98477.84;;;13.90;67.24
22311;BME280;11323;49.610;11.016;2023-04-05T23:12:28;98472.56;;;13.82;67.34
22311;BME280;11323;49.610;11.016;2023-04-05T23:17:28;98476.31;;;13.79;67.24
22311;BME280;11323;49.610;11.016;2023-04-05T23:22:29;98476.66;;;13.76;67.16
22311;BME280;11323;49.610;11.016;2023-04-05T23:27:29;98473.66;;;13.71;67.25
22311;BME280;11323;49.610;11.016;2023-04-05T23:32:30;98478.41;;;13.67;67.63
22311;BME280;11323;49.610;11.016;2023-04-05T23:37:30;98479.38;;;13.66;67.78
22311;BME280;11323;49.610;11.016;2023-04-05T23:42:31;98482.47;;;13.62;67.54
22311;BME280;11323;49.610;11.016;2023-04-05T23:47:31;98483.44;;;13.61;68.05
22311;BME280;11323;49.610;11.016;2023-04-05T23:52:32;98481.28;;;13.56;68.04
22311;BME280;11323;49.610;11.016;2023-04-05T23:57:32;98482.94;;;13.57;67.35
